sensor_id;sensor_type;location;lat;lon;timestamp;pressure;altitude;pressure_sealevel;temperature;humidity
80323;BME280;69636;52.372;13.610;2024-01-27T00:00:24;102273.97;;;4.53;100.00
80323;BME280;69636;52.372;13.610;2024-01-27T00:02:52;102277.69;;;4.49;99.59
80323;BME280;69636;52.372;13.610;2024-01-27T00:05:20;102277.53;;;4.52;99.83
80323;BME280;69636;52.372;13.610;2024-01-27T00:07:47;102278.25;;;4.56;99.55
80323;BME280;69636;52.372;13.610;2024-01-27T00:10:15;102280.09;;;4.54;99.36
80323;BME280;69636;52.372;13.610;2024-01-27T00:12:43;102282.94;;;4.49;99.90
80323;BME280;69636;52.372;13.610;2024-01-27T00:15:11;102280.38;;;4.48;99.78
80323;BME280;69636;52.372;13.610;2024-01-27T00:17:38;102276.91;;;4.47;100.00
80323;BME280;69636;52.372;13.610;2024-01-27T00:20:07;102281.09;;;4.51;98.96
80323;BME280;69636;52.372;13.610;2024-01-27T00:22:34;102277.06;;;4.44;98.56
80323;BME280;69636;52.372;13.610;2024-01-27T00:25:02;102282.03;;;4.50;99.13
80323;BME280;69636;52.372;13.610;2024-01-27T00:27:29;102283.44;;;4.40;98.55
80323;BME280;69636;52.372;13.610;2024-01-27T00:29:58;102281.72;;;4.39;98.42
80323;BME280;69636;52.372;13.610;2024-01-27T00:32:25;102272.13;;;4.38;99.02
80323;BME280;69636;52.372;13.610;2024-01-27T00:34:52;102277.38;;;4.38;98.95
80323;BME280;69636;52.372;13.610;2024-01-27T00:37:20;102278.63;;;4.31;99.01
80323;BME280;69636;52.372;13.610;2024-01-27T00:39:47;102280.38;;;4.30;98.00
80323;BME280;69636;52.372;13.610;2024-01-27T00:42:14;102283.53;;;4.20;98.55
80323;BME280;69636;52.372;13.610;2024-01-27T00:44:42;102282.59;;;4.21;97.83
80323;BME280;69636;52.372;13.610;2024-01-27T00:47:10;102292.97;;;4.24;97.85
80323;BME280;69636;52.372;13.610;2024-01-27T00:49:38;102285.88;;;4.26;96.16
80323;BME280;69636;52.372;13.610;2024-01-27T00:52:05;102294.25;;;4.34;96.96
80323;BME280;69636;52.372;13.610;2024-01-27T00:54:33;102292.91;;;4.42;95.89
80323;BME280;69636;52.372;13.610;2024-01-27T00:57:00;102293.63;;;4.46;95.03
80323;BME280;69636;52.372;13.610;2024-01-27T00:59:27;102298.50;;;4.36;96.37
80323;BME280;69636;52.372;13.610;2024-01-27T01:01:55;102303.59;;;4.39;95.05
80323;BME280;69636;52.372;13.610;2024-01-27T01:04:23;102289.53;;;4.40;94.89
80323;BME280;69636;52.372;13.610;2024-01-27T01:06:51;102296.09;;;4.32;94.77
80323;BME280;69636;52.372;13.610;2024-01-27T01:09:18;102302.13;;;4.34;95.46
80323;BME280;69636;52.372;13.610;2024-01-27T01:11:45;102307.16;;;4.38;94.29
80323;BME280;69636;52.372;13.610;2024-01-27T01:14:13;102317.53;;;4.41;94.06
80323;BME280;69636;52.372;13.610;2024-01-27T01:16:40;102326.41;;;4.39;95.34
80323;BME280;69636;52.372;13.610;2024-01-27T01:19:08;102325.63;;;4.37;95.42
80323;BME280;69636;52.372;13.610;2024-01-27T01:21:37;102329.78;;;4.24;95.58
80323;BME280;69636;52.372;13.610;2024-01-27T01:24:04;102336.09;;;4.20;96.44
80323;BME280;69636;52.372;13.610;2024-01-27T01:26:32;102331.34;;;4.28;96.61
80323;BME280;69636;52.372;13.610;2024-01-27T01:28:59;102344.34;;;4.31;96.38
80323;BME280;69636;52.372;13.610;2024-01-27T01:31:26;102338.00;;;4.35;96.62
80323;BME280;69636;52.372;13.610;2024-01-27T01:33:53;102341.84;;;4.28;96.50
80323;BME280;69636;52.372;13.610;2024-01-27T01:36:49;102340.00;;;4.30;97.24
80323;BME280;69636;52.372;13.610;2024-01-27T01:39:16;102340.00;;;4.30;96.72
80323;BME280;69636;52.372;13.610;2024-01-27T01:41:43;102355.91;;;4.27;97.16
80323;BME280;69636;52.372;13.610;2024-01-27T01:44:11;102359.31;;;4.29;96.54
80323;BME280;69636;52.372;13.610;2024-01-27T01:46:38;102357.63;;;4.28;97.09
80323;BME280;69636;52.372;13.610;2024-01-27T01:49:06;102353.56;;;4.21;96.38
80323;BME280;69636;52.372;13.610;2024-01-27T01:51:33;102358.69;;;4.24;96.81
80323;BME280;69636;52.372;13.610;2024-01-27T01:54:02;102354.63;;;4.17;98.25
80323;BME280;69636;52.372;13.610;2024-01-27T01:56:30;102361.78;;;4.15;97.11
80323;BME280;69636;52.372;13.610;2024-01-27T01:58:58;102357.06;;;4.21;98.21
80323;BME280;69636;52.372;13.610;2024-01-27T02:01:25;102371.84;;;4.24;98.09
80323;BME280;69636;52.372;13.610;2024-01-27T02:03:53;102369.06;;;4.27;96.64
80323;BME280;69636;52.372;13.610;2024-01-27T02:06:20;102370.13;;;4.23;97.70
80323;BME280;69636;52.372;13.610;2024-01-27T02:08:48;102377.81;;;4.27;97.50
80323;BME280;69636;52.372;13.610;2024-01-27T02:11:17;102377.81;;;4.27;98.09
80323;BME280;69636;52.372;13.610;2024-01-27T02:13:44;102389.44;;;4.22;99.37
80323;BME280;69636;52.372;13.610;2024-01-27T02:16:14;102379.16;;;4.17;99.10
80323;BME280;69636;52.372;13.610;2024-01-27T02:18:41;102392.41;;;4.16;97.85
80323;BME280;69636;52.372;13.610;2024-01-27T02:21:08;102377.53;;;4.15;98.92
80323;BME280;69636;52.372;13.610;2024-01-27T02:23:36;102373.28;;;4.12;98.48
80323;BME280;69636;52.372;13.610;2024-01-27T02:26:05;102380.38;;;4.10;99.78
80323;BME280;69636;52.372;13.610;2024-01-27T02:28:32;102371.72;;;4.08;98.63
80323;BME280;69636;52.372;13.610;2024-01-27T02:30:59;102375.66;;;4.17;98.43
80323;BME280;69636;52.372;13.610;2024-01-27T02:33:27;102382.09;;;4.11;99.93
80323;BME280;69636;52.372;13.610;2024-01-27T02:35:54;102392.84;;;4.24;99.13
80323;BME280;69636;52.372;13.610;2024-01-27T02:38:22;102394.28;;;4.31;97.95
80323;BME280;69636;52.372;13.610;2024-01-27T02:40:49;102397.47;;;4.37;97.74
80323;BME280;69636;52.372;13.610;2024-01-27T02:43:18;102406.50;;;4.32;97.52
80323;BME280;69636;52.372;13.610;2024-01-27T02:45:45;102403.59;;;4.38;98.53
80323;BME280;69636;52.372;13.610;2024-01-27T02:48:12;102402.09;;;4.32;97.53
80323;BME280;69636;52.372;13.610;2024-01-27T02:50:40;102410.25;;;4.45;97.53
80323;BME280;69636;52.372;13.610;2024-01-27T02:53:07;102404.38;;;4.40;98.52
80323;BME280;69636;52.372;13.610;2024-01-27T02:55:35;102409.69;;;4.38;98.20
80323;BME280;69636;52.372;13.610;2024-01-27T02:58:02;102411.34;;;4.41;98.38
80323;BME280;69636;52.372;13.610;2024-01-27T03:00:31;102410.19;;;4.28;98.37
80323;BME280;69636;52.372;13.610;2024-01-27T03:02:58;102411.34;;;4.22;98.56
80323;BME280;69636;52.372;13.610;2024-01-27T03:05:26;102416.38;;;4.27;98.35
80323;BME280;69636;52.372;13.610;2024-01-27T03:07:53;102423.97;;;4.33;98.43
80323;BME280;69636;52.372;13.610;2024-01-27T03:10:20;102428.09;;;4.38;97.38
80323;BME280;69636;52.372;13.610;2024-01-27T03:12:48;102428.38;;;4.32;98.06
80323;BME280;69636;52.372;13.610;2024-01-27T03:15:15;102432.66;;;4.35;98.54
80323;BME280;69636;52.372;13.610;2024-01-27T03:17:44;102420.63;;;4.29;98.84
80323;BME280;69636;52.372;13.610;2024-01-27T03:20:11;102431.94;;;4.31;99.37
80323;BME280;69636;52.372;13.610;2024-01-27T03:22:39;102435.06;;;4.39;98.82
80323;BME280;69636;52.372;13.610;2024-01-27T03:25:06;102427.13;;;4.41;97.54
80323;BME280;69636;52.372;13.610;2024-01-27T03:27:34;102432.72;;;4.33;98.86
80323;BME280;69636;52.372;13.610;2024-01-27T03:30:02;102422.00;;;4.38;97.94
80323;BME280;69636;52.372;13.610;2024-01-27T03:32:30;102428.94;;;4.20;99.46
80323;BME280;69636;52.372;13.610;2024-01-27T03:34:58;102428.22;;;4.17;99.70
80323;BME280;69636;52.372;13.610;2024-01-27T03:37:26;102430.78;;;4.18;99.47
80323;BME280;69636;52.372;13.610;2024-01-27T03:39:53;102438.59;;;4.20;99.04
80323;BME280;69636;52.372;13.610;2024-01-27T03:42:20;102431.81;;;4.16;99.95
80323;BME280;69636;52.372;13.610;2024-01-27T03:44:48;102434.44;;;4.16;98.51
80323;BME280;69636;52.372;13.610;2024-01-27T03:47:15;102432.16;;;4.08;100.00
80323;BME280;69636;52.372;13.610;2024-01-27T03:49:42;102442.03;;;4.03;99.68
80323;BME280;69636;52.372;13.610;2024-01-27T03:52:12;102432.78;;;3.94;99.98
80323;BME280;69636;52.372;13.610;2024-01-27T03:54:39;102442.56;;;3.91;100.00
80323;BME280;69636;52.372;13.610;2024-01-27T03:57:06;102443.72;;;3.85;100.00
80323;BME280;69636;52.372;13.610;2024-01-27T03:59:34;102456.19;;;3.80;100.00
80323;BME280;69636;52.372;13.610;2024-01-27T04:02:01;102463.88;;;3.85;100.00
80323;BME280;69636;52.372;13.610;2024-01-27T04:04:28;102471.81;;;3.83;100.00
80323;BME280;69636;52.372;13.610;2024-01-27T04:06:56;102474.38;;;3.85;100.00
80323;BME280;69636;52.372;13.610;2024-01-27T04:09:24;102472.63;;;3.85;100.00
80323;BME280;69636;52.372;13.610;2024-01-27T04:11:52;102483.31;;;3.81;100.00
80323;BME280;69636;52.372;13.610;2024-01-27T04:14:19;102479.25;;;3.73;100.00
80323;BME280;69636;52.372;13.610;2024-01-27T04:16:46;102474.19;;;3.69;100.00
80323;BME280;69636;52.372;13.610;2024-01-27T04:19:14;102482.00;;;3.70;100.00
80323;BME280;69636;52.372;13.610;2024-01-27T04:21:41;102479.56;;;3.66;100.00
80323;BME280;69636;52.372;13.610;2024-01-27T04:24:09;102487.00;;;3.56;100.00
80323;BME280;69636;52.372;13.610;2024-01-27T04:26:37;102490.63;;;3.54;100.00
80323;BME280;69636;52.372;13.610;2024-01-27T04:29:05;102489.28;;;3.44;100.00
80323;BME280;69636;52.372;13.610;2024-01-27T04:31:32;102492.72;;;3.46;100.00
80323;BME280;69636;52.372;13.610;2024-01-27T04:33:59;102498.03;;;3.44;100.00
80323;BME280;69636;52.372;13.610;2024-01-27T04:36:27;102503.34;;;3.42;100.00
80323;BME280;69636;52.372;13.610;2024-01-27T04:38:55;102498.09;;;3.42;100.00
80323;BME280;69636;52.372;13.610;2024-01-27T04:41:22;102507.66;;;3.44;100.00
80323;BME280;69636;52.372;13.610;2024-01-27T04:43:51;102510.41;;;3.40;100.00
80323;BME280;69636;52.372;13.610;2024-01-27T04:46:19;102521.78;;;3.41;100.00
80323;BME280;69636;52.372;13.610;2024-01-27T04:48:46;102516.16;;;3.50;100.00
80323;BME280;69636;52.372;13.610;2024-01-27T04:51:13;102526.72;;;3.49;100.00
80323;BME280;69636;52.372;13.610;2024-01-27T04:53:41;102527.94;;;3.40;100.00
80323;BME280;69636;52.372;13.610;2024-01-27T04:56:08;102528.44;;;3.50;100.00
80323;BME280;69636;52.372;13.610;2024-01-27T04:58:36;102545.75;;;3.54;100.00
80323;BME280;69636;52.372;13.610;2024-01-27T05:01:04;102543.00;;;3.57;100.00
80323;BME280;69636;52.372;13.610;2024-01-27T05:03:32;102544.72;;;3.58;100.00
80323;BME280;69636;52.372;13.610;2024-01-27T05:05:59;102547.34;;;3.58;100.00
80323;BME280;69636;52.372;13.610;2024-01-27T05:08:27;102547.72;;;3.69;100.00
80323;BME280;69636;52.372;13.610;2024-01-27T05:10:54;102560.41;;;3.80;100.00
80323;BME280;69636;52.372;13.610;2024-01-27T05:13:25;102562.72;;;3.87;100.00
80323;BME280;69636;52.372;13.610;2024-01-27T05:15:53;102558.38;;;3.86;100.00
80323;BME280;69636;52.372;13.610;2024-01-27T05:18:21;102562.84;;;3.84;100.00
80323;BME280;69636;52.372;13.610;2024-01-27T05:20:49;102566.22;;;3.88;100.00
80323;BME280;69636;52.372;13.610;2024-01-27T05:23:16;102583.19;;;3.99;100.00
80323;BME280;69636;52.372;13.610;2024-01-27T05:25:43;102577.03;;;4.00;100.00
80323;BME280;69636;52.372;13.610;2024-01-27T05:28:11;102581.44;;;4.00;100.00
80323;BME280;69636;52.372;13.610;2024-01-27T05:30:38;102576.09;;;4.01;100.00
80323;BME280;69636;52.372;13.610;2024-01-27T05:33:05;102584.91;;;4.00;100.00
80323;BME280;69636;52.372;13.610;2024-01-27T05:35:34;102575.44;;;3.96;100.00
80323;BME280;69636;52.372;13.610;2024-01-27T05:38:02;102581.75;;;3.92;100.00
80323;BME280;69636;52.372;13.610;2024-01-27T05:40:29;102579.66;;;4.00;100.00
80323;BME280;69636;52.372;13.610;2024-01-27T05:42:56;102583.06;;;4.02;100.00
80323;BME280;69636;52.372;13.610;2024-01-27T05:45:24;102581.28;;;4.03;100.00
80323;BME280;69636;52.372;13.610;2024-01-27T05:47:51;102577.94;;;3.99;100.00
80323;BME280;69636;52.372;13.610;2024-01-27T05:50:19;102584.78;;;4.03;100.00
80323;BME280;69636;52.372;13.610;2024-01-27T05:52:47;102569.94;;;4.02;100.00
80323;BME280;69636;52.372;13.610;2024-01-27T05:55:14;102578.59;;;4.04;100.00
80323;BME280;69636;52.372;13.610;2024-01-27T05:57:42;102579.25;;;4.09;100.00
80323;BME280;69636;52.372;13.610;2024-01-27T06:00:11;102583.06;;;4.02;100.00
80323;BME280;69636;52.372;13.610;2024-01-27T06:02:38;102586.50;;;4.04;100.00
80323;BME280;69636;52.372;13.610;2024-01-27T06:05:06;102601.72;;;3.96;100.00
80323;BME280;69636;52.372;13.610;2024-01-27T06:07:33;102601.34;;;4.05;100.00
80323;BME280;69636;52.372;13.610;2024-01-27T06:10:02;102604.56;;;4.12;100.00
80323;BME280;69636;52.372;13.610;2024-01-27T06:12:31;102612.38;;;4.14;100.00
80323;BME280;69636;52.372;13.610;2024-01-27T06:14:58;102620.34;;;4.12;100.00
80323;BME280;69636;52.372;13.610;2024-01-27T06:17:26;102607.56;;;4.03;100.00
80323;BME280;69636;52.372;13.610;2024-01-27T06:19:53;102614.66;;;4.01;100.00
80323;BME280;69636;52.372;13.610;2024-01-27T06:22:21;102624.06;;;4.06;100.00
80323;BME280;69636;52.372;13.610;2024-01-27T06:24:48;102622.22;;;4.08;100.00
80323;BME280;69636;52.372;13.610;2024-01-27T06:27:17;102625.06;;;4.04;100.00
80323;BME280;69636;52.372;13.610;2024-01-27T06:29:45;102639.66;;;4.11;100.00
80323;BME280;69636;52.372;13.610;2024-01-27T06:32:12;102640.38;;;4.15;100.00
80323;BME280;69636;52.372;13.610;2024-01-27T06:34:40;102632.63;;;4.12;100.00
80323;BME280;69636;52.372;13.610;2024-01-27T06:37:07;102650.72;;;4.18;100.00
80323;BME280;69636;52.372;13.610;2024-01-27T06:39:34;102652.44;;;4.19;100.00
80323;BME280;69636;52.372;13.610;2024-01-27T06:42:02;102643.63;;;4.20;100.00
80323;BME280;69636;52.372;13.610;2024-01-27T06:44:31;102650.72;;;4.18;100.00
80323;BME280;69636;52.372;13.610;2024-01-27T06:46:58;102659.53;;;4.17;100.00
80323;BME280;69636;52.372;13.610;2024-01-27T06:49:26;102655.06;;;4.19;100.00
80323;BME280;69636;52.372;13.610;2024-01-27T06:51:53;102662.94;;;4.19;100.00
80323;BME280;69636;52.372;13.610;2024-01-27T06:54:20;102659.88;;;4.29;100.00
80323;BME280;69636;52.372;13.610;2024-01-27T06:56:48;102672.97;;;4.31;100.00
80323;BME280;69636;52.372;13.610;2024-01-27T06:59:15;102680.91;;;4.29;100.00
80323;BME280;69636;52.372;13.610;2024-01-27T07:01:47;102678.34;;;4.28;100.00
80323;BME280;69636;52.372;13.610;2024-01-27T07:04:14;102691.38;;;4.31;100.00
80323;BME280;69636;52.372;13.610;2024-01-27T07:06:42;102700.91;;;4.33;100.00
80323;BME280;69636;52.372;13.610;2024-01-27T07:09:09;102697.16;;;4.39;100.00
80323;BME280;69636;52.372;13.610;2024-01-27T07:11:37;102707.19;;;4.29;100.00
80323;BME280;69636;52.372;13.610;2024-01-27T07:14:04;102707.25;;;4.28;100.00
80323;BME280;69636;52.372;13.610;2024-01-27T07:16:31;102718.31;;;4.36;100.00
80323;BME280;69636;52.372;13.610;2024-01-27T07:19:00;102714.97;;;4.32;100.00
80323;BME280;69636;52.372;13.610;2024-01-27T07:21:28;102711.59;;;4.29;100.00
80323;BME280;69636;52.372;13.610;2024-01-27T07:23:55;102712.22;;;4.35;100.00
80323;BME280;69636;52.372;13.610;2024-01-27T07:26:22;102717.53;;;4.34;100.00
80323;BME280;69636;52.372;13.610;2024-01-27T07:28:50;102720.94;;;4.36;100.00
80323;BME280;69636;52.372;13.610;2024-01-27T07:31:17;102720.88;;;4.37;100.00
80323;BME280;69636;52.372;13.610;2024-01-27T07:33:44;102720.22;;;4.32;100.00
80323;BME280;69636;52.372;13.610;2024-01-27T07:36:13;102727.00;;;4.38;100.00
80323;BME280;69636;52.372;13.610;2024-01-27T07:38:41;102738.81;;;4.48;100.00
80323;BME280;69636;52.372;13.610;2024-01-27T07:41:08;102745.41;;;4.58;100.00
80323;BME280;69636;52.372;13.610;2024-01-27T07:43:35;102741.97;;;4.56;100.00
80323;BME280;69636;52.372;13.610;2024-01-27T07:46:03;102750.66;;;4.58;100.00
80323;BME280;69636;52.372;13.610;2024-01-27T07:48:30;102748.03;;;4.58;100.00
80323;BME280;69636;52.372;13.610;2024-01-27T07:50:57;102761.97;;;4.60;100.00
80323;BME280;69636;52.372;13.610;2024-01-27T07:53:26;102759.59;;;4.54;100.00
80323;BME280;69636;52.372;13.610;2024-01-27T07:55:54;102769.88;;;4.60;100.00
80323;BME280;69636;52.372;13.610;2024-01-27T07:58:21;102765.28;;;4.65;100.00
80323;BME280;69636;52.372;13.610;2024-01-27T08:00:48;102759.94;;;4.67;100.00
80323;BME280;69636;52.372;13.610;2024-01-27T08:03:16;102760.25;;;4.80;100.00
80323;BME280;69636;52.372;13.610;2024-01-27T08:05:43;102764.97;;;4.71;100.00
80323;BME280;69636;52.372;13.610;2024-01-27T08:08:10;102765.84;;;4.72;100.00
80323;BME280;69636;52.372;13.610;2024-01-27T08:10:39;102769.25;;;4.74;100.00
80323;BME280;69636;52.372;13.610;2024-01-27T08:13:06;102769.25;;;4.74;100.00
80323;BME280;69636;52.372;13.610;2024-01-27T08:15:34;102758.59;;;4.77;100.00
80323;BME280;69636;52.372;13.610;2024-01-27T08:18:01;102776.28;;;4.73;100.00
80323;BME280;69636;52.372;13.610;2024-01-27T08:20:29;102777.03;;;4.77;100.00
80323;BME280;69636;52.372;13.610;2024-01-27T08:22:56;102784.06;;;4.76;100.00
80323;BME280;69636;52.372;13.610;2024-01-27T08:25:23;102789.38;;;4.75;100.00
80323;BME280;69636;52.372;13.610;2024-01-27T08:27:52;102791.22;;;4.73;100.00
80323;BME280;69636;52.372;13.610;2024-01-27T08:30:19;102793.66;;;4.77;100.00
80323;BME280;69636;52.372;13.610;2024-01-27T08:32:47;102795.25;;;4.82;100.00
80323;BME280;69636;52.372;13.610;2024-01-27T08:35:14;102795.00;;;4.88;100.00
80323;BME280;69636;52.372;13.610;2024-01-27T08:37:42;102800.25;;;4.88;100.00
80323;BME280;69636;52.372;13.610;2024-01-27T08:40:10;102804.47;;;4.92;100.00
80323;BME280;69636;52.372;13.610;2024-01-27T08:42:37;102811.94;;;5.01;100.00
80323;BME280;69636;52.372;13.610;2024-01-27T08:45:07;102811.16;;;4.99;100.00
80323;BME280;69636;52.372;13.610;2024-01-27T08:47:34;102808.00;;;4.91;100.00
80323;BME280;69636;52.372;13.610;2024-01-27T08:50:02;102811.22;;;4.97;100.00
80323;BME280;69636;52.372;13.610;2024-01-27T08:52:29;102806.41;;;5.07;100.00
80323;BME280;69636;52.372;13.610;2024-01-27T08:54:57;102811.69;;;5.07;100.00
80323;BME280;69636;52.372;13.610;2024-01-27T08:57:24;102807.41;;;5.04;100.00
80323;BME280;69636;52.372;13.610;2024-01-27T08:59:51;102814.25;;;5.08;100.00
80323;BME280;69636;52.372;13.610;2024-01-27T09:02:21;102814.50;;;5.02;100.00
80323;BME280;69636;52.372;13.610;2024-01-27T09:04:48;102815.75;;;5.14;100.00
80323;BME280;69636;52.372;13.610;2024-01-27T09:07:15;102818.09;;;5.20;100.00
80323;BME280;69636;52.372;13.610;2024-01-27T09:09:43;102817.56;;;5.32;100.00
80323;BME280;69636;52.372;13.610;2024-01-27T09:12:10;102817.56;;;5.32;100.00
80323;BME280;69636;52.372;13.610;2024-01-27T09:14:38;102827.25;;;5.32;99.52
80323;BME280;69636;52.372;13.610;2024-01-27T09:17:05;102819.06;;;5.38;99.69
80323;BME280;69636;52.372;13.610;2024-01-27T09:19:34;102822.56;;;5.38;99.62
80323;BME280;69636;52.372;13.610;2024-01-27T09:22:01;102829.09;;;5.49;99.99
80323;BME280;69636;52.372;13.610;2024-01-27T09:24:28;102833.69;;;5.64;97.78
80323;BME280;69636;52.372;13.610;2024-01-27T09:26:56;102829.53;;;5.58;98.43
80323;BME280;69636;52.372;13.610;2024-01-27T09:29:23;102838.22;;;5.60;97.46
80323;BME280;69636;52.372;13.610;2024-01-27T09:31:50;102841.78;;;5.59;97.50
80323;BME280;69636;52.372;13.610;2024-01-27T09:34:18;102840.66;;;5.65;98.13
80323;BME280;69636;52.372;13.610;2024-01-27T09:36:47;102842.25;;;5.69;98.04
80323;BME280;69636;52.372;13.610;2024-01-27T09:39:14;102846.78;;;5.65;97.79
80323;BME280;69636;52.372;13.610;2024-01-27T09:41:42;102848.38;;;5.69;97.75
80323;BME280;69636;52.372;13.610;2024-01-27T09:44:12;102848.91;;;5.76;96.53
80323;BME280;69636;52.372;13.610;2024-01-27T09:46:39;102853.56;;;5.71;97.00
80323;BME280;69636;52.372;13.610;2024-01-27T09:49:08;102855.09;;;5.75;97.07
80323;BME280;69636;52.372;13.610;2024-01-27T09:51:36;102858.03;;;5.69;97.31
80323;BME280;69636;52.372;13.610;2024-01-27T09:54:05;102859.44;;;5.76;97.17
80323;BME280;69636;52.372;13.610;2024-01-27T09:56:34;102860.31;;;5.76;97.12
80323;BME280;69636;52.372;13.610;2024-01-27T09:59:01;102862.53;;;5.86;97.27
80323;BME280;69636;52.372;13.610;2024-01-27T10:01:29;102877.28;;;5.71;97.44
80323;BME280;69636;52.372;13.610;2024-01-27T10:03:57;102873.69;;;5.72;97.82
80323;BME280;69636;52.372;13.610;2024-01-27T10:06:25;102873.13;;;5.65;97.95
80323;BME280;69636;52.372;13.610;2024-01-27T10:08:54;102875.41;;;5.73;97.19
80323;BME280;69636;52.372;13.610;2024-01-27T10:11:23;102879.13;;;5.69;98.72
80323;BME280;69636;52.372;13.610;2024-01-27T10:13:54;102877.81;;;5.59;98.37
80323;BME280;69636;52.372;13.610;2024-01-27T10:16:26;102877.41;;;5.68;97.71
80323;BME280;69636;52.372;13.610;2024-01-27T10:18:59;102873.84;;;5.69;98.15
80323;BME280;69636;52.372;13.610;2024-01-27T10:21:27;102883.09;;;5.77;98.51
80323;BME280;69636;52.372;13.610;2024-01-27T10:23:54;102877.84;;;5.77;97.82
80323;BME280;69636;52.372;13.610;2024-01-27T10:26:23;102882.81;;;5.84;97.45
80323;BME280;69636;52.372;13.610;2024-01-27T10:28:54;102886.56;;;5.98;96.78
80323;BME280;69636;52.372;13.610;2024-01-27T10:31:26;102885.84;;;6.13;97.74
80323;BME280;69636;52.372;13.610;2024-01-27T10:33:53;102877.50;;;5.85;96.70
80323;BME280;69636;52.372;13.610;2024-01-27T10:36:21;102887.97;;;6.05;96.71
80323;BME280;69636;52.372;13.610;2024-01-27T10:38:49;102881.66;;;6.09;96.18
80323;BME280;69636;52.372;13.610;2024-01-27T10:41:21;102876.31;;;5.92;96.97
80323;BME280;69636;52.372;13.610;2024-01-27T10:43:51;102888.44;;;5.96;97.29
80323;BME280;69636;52.372;13.610;2024-01-27T10:46:20;102878.66;;;5.98;97.12
80323;BME280;69636;52.372;13.610;2024-01-27T10:48:50;102883.78;;;6.01;96.41
80323;BME280;69636;52.372;13.610;2024-01-27T10:51:23;102890.13;;;6.16;95.87
80323;BME280;69636;52.372;13.610;2024-01-27T10:53:56;102891.31;;;6.28;96.58
80323;BME280;69636;52.372;13.610;2024-01-27T10:56:29;102895.09;;;6.41;95.77
80323;BME280;69636;52.372;13.610;2024-01-27T10:58:58;102896.72;;;6.25;95.93
80323;BME280;69636;52.372;13.610;2024-01-27T11:01:28;102896.94;;;6.39;95.54
80323;BME280;69636;52.372;13.610;2024-01-27T11:03:56;102900.00;;;6.30;95.50
80323;BME280;69636;52.372;13.610;2024-01-27T11:06:23;102903.25;;;6.18;96.19
80323;BME280;69636;52.372;13.610;2024-01-27T11:08:51;102899.38;;;6.25;96.11
80323;BME280;69636;52.372;13.610;2024-01-27T11:11:19;102903.53;;;6.11;96.13
80323;BME280;69636;52.372;13.610;2024-01-27T11:13:46;102904.81;;;6.22;95.94
80323;BME280;69636;52.372;13.610;2024-01-27T11:16:17;102903.22;;;6.36;95.68
80323;BME280;69636;52.372;13.610;2024-01-27T11:18:45;102900.50;;;6.38;95.25
80323;BME280;69636;52.372;13.610;2024-01-27T11:21:16;102901.03;;;6.63;95.38
80323;BME280;69636;52.372;13.610;2024-01-27T11:23:44;102905.53;;;6.78;94.19
80323;BME280;69636;52.372;13.610;2024-01-27T11:26:17;102907.56;;;6.73;93.19
80323;BME280;69636;52.372;13.610;2024-01-27T11:28:46;102908.41;;;6.74;92.52
80323;BME280;69636;52.372;13.610;2024-01-27T11:31:18;102908.44;;;6.55;94.09
80323;BME280;69636;52.372;13.610;2024-01-27T11:33:47;102905.78;;;6.38;93.26
80323;BME280;69636;52.372;13.610;2024-01-27T11:36:19;102900.72;;;6.33;94.41
80323;BME280;69636;52.372;13.610;2024-01-27T11:38:47;102910.31;;;6.53;93.36
80323;BME280;69636;52.372;13.610;2024-01-27T11:41:23;102919.19;;;6.69;93.76
80323;BME280;69636;52.372;13.610;2024-01-27T11:43:54;102923.16;;;6.78;93.41
80323;BME280;69636;52.372;13.610;2024-01-27T11:46:23;102924.56;;;6.68;93.00
80323;BME280;69636;52.372;13.610;2024-01-27T11:48:52;102927.69;;;6.57;93.34
80323;BME280;69636;52.372;13.610;2024-01-27T11:51:19;102929.13;;;6.64;93.87
80323;BME280;69636;52.372;13.610;2024-01-27T11:53:47;102925.13;;;6.74;93.64
80323;BME280;69636;52.372;13.610;2024-01-27T11:56:14;102928.81;;;6.70;92.92
80323;BME280;69636;52.372;13.610;2024-01-27T11:58:46;102939.97;;;6.58;93.20
80323;BME280;69636;52.372;13.610;2024-01-27T12:01:14;102935.75;;;6.54;93.32
80323;BME280;69636;52.372;13.610;2024-01-27T12:03:43;102923.81;;;6.47;93.07
80323;BME280;69636;52.372;13.610;2024-01-27T12:06:12;102940.78;;;6.41;94.15
80323;BME280;69636;52.372;13.610;2024-01-27T12:08:41;102932.59;;;6.29;96.03
80323;BME280;69636;52.372;13.610;2024-01-27T12:11:08;102938.94;;;6.43;94.90
80323;BME280;69636;52.372;13.610;2024-01-27T12:13:36;102945.97;;;6.24;95.71
80323;BME280;69636;52.372;13.610;2024-01-27T12:16:04;102954.00;;;6.23;95.39
80323;BME280;69636;52.372;13.610;2024-01-27T12:18:31;102953.50;;;6.15;95.45
80323;BME280;69636;52.372;13.610;2024-01-27T12:21:00;102967.81;;;6.28;95.23
80323;BME280;69636;52.372;13.610;2024-01-27T12:23:28;102973.94;;;6.28;95.66
80323;BME280;69636;52.372;13.610;2024-01-27T12:25:55;102972.16;;;6.29;96.18
80323;BME280;69636;52.372;13.610;2024-01-27T12:28:23;102971.22;;;6.30;95.57
80323;BME280;69636;52.372;13.610;2024-01-27T12:30:52;102972.34;;;6.24;95.53
80323;BME280;69636;52.372;13.610;2024-01-27T12:33:20;102987.31;;;6.24;95.18
80323;BME280;69636;52.372;13.610;2024-01-27T12:35:47;102982.06;;;6.24;94.83
80323;BME280;69636;52.372;13.610;2024-01-27T12:38:17;102986.34;;;6.45;94.41
80323;BME280;69636;52.372;13.610;2024-01-27T12:40:44;102992.19;;;6.33;93.82
80323;BME280;69636;52.372;13.610;2024-01-27T12:43:12;102993.63;;;6.40;93.82
80323;BME280;69636;52.372;13.610;2024-01-27T12:45:39;102993.34;;;6.46;93.17
80323;BME280;69636;52.372;13.610;2024-01-27T12:48:06;102992.19;;;6.52;91.58